createdAt,value
2019-04-03T00:00:31.215Z,9.80
2019-04-03T00:03:06.190Z,11.10
2019-04-03T00:05:41.321Z,9.97
2019-04-03T00:08:16.380Z,12.00
2019-04-03T00:10:51.501Z,10.30
2019-04-03T00:13:26.798Z,11.13
2019-04-03T00:16:01.990Z,10.33
2019-04-03T00:18:37.235Z,10.47
2019-04-03T00:21:12.399Z,10.50
2019-04-03T00:23:47.466Z,10.93
2019-04-03T00:26:22.795Z,9.53
2019-04-03T00:28:57.799Z,11.63
2019-04-03T00:31:35.696Z,11.10
2019-04-03T00:34:10.756Z,12.03
2019-04-03T00:36:45.912Z,12.20
2019-04-03T00:39:20.938Z,10.83
2019-04-03T00:41:55.948Z,10.90
2019-04-03T00:44:30.997Z,11.00
2019-04-03T00:47:06.096Z,10.20
2019-04-03T00:49:41.205Z,10.03
2019-04-03T00:52:16.183Z,11.33
2019-04-03T00:54:51.242Z,11.60
2019-04-03T00:57:26.907Z,12.87
2019-04-03T01:00:02.102Z,11.40
2019-04-03T01:02:37.277Z,12.27
2019-04-03T01:05:12.485Z,12.20
2019-04-03T01:07:49.191Z,11.13
2019-04-03T01:10:24.344Z,14.83
2019-04-03T01:13:01.363Z,13.17
2019-04-03T01:15:36.114Z,10.93
2019-04-03T01:18:11.235Z,12.27
2019-04-03T01:20:46.451Z,12.27
2019-04-03T01:23:22.212Z,12.20
2019-04-03T01:25:57.269Z,12.40
2019-04-03T01:28:32.551Z,15.10
2019-04-03T01:31:07.569Z,11.70
2019-04-03T01:33:42.685Z,12.63
2019-04-03T01:36:18.646Z,13.57
2019-04-03T01:38:54.200Z,17.50
2019-04-03T01:41:29.253Z,12.60
2019-04-03T01:44:04.288Z,12.43
2019-04-03T01:46:41.841Z,12.00
2019-04-03T01:49:16.867Z,13.70
2019-04-03T01:51:52.059Z,12.67
2019-04-03T01:54:27.103Z,11.60
2019-04-03T01:57:06.203Z,13.90
2019-04-03T01:59:40.055Z,15.50
2019-04-03T02:02:15.088Z,12.73
2019-04-03T02:04:50.131Z,15.60
2019-04-03T02:07:25.169Z,12.53
2019-04-03T02:10:00.195Z,13.53
2019-04-03T02:12:35.541Z,15.07
2019-04-03T02:15:10.740Z,14.53
2019-04-03T02:17:46.026Z,17.23
2019-04-03T02:20:21.404Z,15.17
2019-04-03T02:22:59.308Z,14.73
2019-04-03T02:25:34.206Z,15.70
2019-04-03T02:28:09.216Z,15.90
2019-04-03T02:30:47.195Z,17.20
2019-04-03T02:33:22.586Z,18.50
2019-04-03T02:35:57.681Z,16.50
2019-04-03T02:38:33.211Z,18.43
2019-04-03T02:41:08.278Z,18.80
2019-04-03T02:43:46.570Z,21.87
2019-04-03T02:46:20.620Z,20.53
2019-04-03T02:48:55.747Z,16.77
2019-04-03T02:51:31.311Z,21.00
2019-04-03T02:54:29.783Z,18.60
2019-04-03T02:57:05.042Z,18.00
2019-04-03T02:59:40.109Z,20.60
2019-04-03T03:02:15.102Z,19.83
2019-04-03T03:04:53.731Z,19.57
2019-04-03T03:07:26.882Z,19.20
2019-04-03T03:10:03.917Z,17.87
2019-04-03T03:12:41.048Z,19.47
2019-04-03T03:15:17.605Z,19.30
2019-04-03T03:17:55.096Z,20.90
2019-04-03T03:20:32.655Z,22.23
2019-04-03T03:23:07.821Z,19.13
2019-04-03T03:25:43.795Z,20.77
2019-04-03T03:28:19.392Z,27.83
2019-04-03T03:31:02.709Z,22.03
2019-04-03T03:33:38.526Z,20.07
2019-04-03T03:36:15.293Z,21.97
2019-04-03T03:38:48.864Z,22.00
2019-04-03T03:41:24.836Z,20.60
2019-04-03T03:44:00.000Z,24.77
2019-04-03T03:46:35.480Z,21.77
2019-04-03T03:49:10.766Z,24.73
2019-04-03T03:51:46.866Z,24.30
2019-04-03T03:54:24.170Z,24.00
2019-04-03T03:57:04.362Z,24.43
2019-04-03T03:59:40.761Z,23.60
2019-04-03T04:02:17.164Z,24.97
2019-04-03T04:04:52.548Z,25.43
2019-04-03T04:07:28.716Z,28.60
2019-04-03T04:10:04.480Z,26.93
2019-04-03T04:12:41.778Z,27.17
2019-04-03T04:15:19.025Z,27.00
2019-04-03T04:17:55.280Z,24.83
2019-04-03T04:20:31.399Z,26.80
2019-04-03T04:23:07.375Z,25.37
2019-04-03T04:25:44.190Z,25.70
2019-04-03T04:28:20.752Z,23.70
2019-04-03T04:30:56.292Z,28.90
2019-04-03T04:33:31.647Z,30.77
2019-04-03T04:36:07.011Z,25.43
2019-04-03T04:38:42.204Z,23.53
2019-04-03T04:41:17.227Z,24.17
2019-04-03T04:43:52.436Z,27.07
2019-04-03T04:46:27.430Z,25.57
2019-04-03T04:49:02.758Z,27.80
2019-04-03T04:51:37.964Z,28.37
2019-04-03T04:54:13.192Z,22.47
2019-04-03T04:56:48.219Z,27.50
2019-04-03T04:59:23.731Z,23.03
2019-04-03T05:01:58.718Z,25.20
2019-04-03T05:04:34.100Z,27.10
2019-04-03T05:07:09.962Z,23.97
2019-04-03T05:09:44.961Z,23.20
2019-04-03T05:12:19.970Z,20.87
2019-04-03T05:15:09.383Z,20.27
2019-04-03T05:17:52.179Z,21.73
2019-04-03T05:20:27.271Z,24.77
2019-04-03T05:25:50.446Z,27.77
2019-04-03T05:28:25.744Z,22.83
2019-04-03T05:31:01.240Z,23.40
2019-04-03T05:33:36.592Z,23.63
2019-04-03T05:36:11.797Z,24.70
2019-04-03T05:38:46.775Z,23.37
2019-04-03T05:41:21.966Z,23.07
2019-04-03T05:43:56.982Z,24.33
2019-04-03T05:46:32.769Z,24.87
2019-04-03T05:49:10.719Z,23.43
2019-04-03T05:51:44.755Z,25.47
2019-04-03T05:54:20.030Z,26.37
2019-04-03T05:56:55.323Z,21.33
2019-04-03T05:59:32.744Z,24.07
2019-04-03T06:02:14.560Z,26.60
2019-04-03T06:04:44.032Z,24.17
2019-04-03T06:07:19.190Z,22.20
2019-04-03T06:09:58.279Z,23.33
2019-04-03T06:12:31.326Z,21.83
2019-04-03T06:15:09.827Z,21.70
2019-04-03T06:17:50.248Z,25.27
2019-04-03T06:20:24.862Z,21.80
2019-04-03T06:23:00.132Z,25.90
2019-04-03T06:25:35.919Z,23.90
2019-04-03T06:28:13.136Z,23.50
2019-04-03T06:30:47.866Z,24.43
2019-04-03T06:33:24.397Z,20.20
2019-04-03T06:35:59.594Z,22.50
2019-04-03T06:38:34.990Z,26.73
2019-04-03T06:41:09.978Z,28.57
2019-04-03T06:43:45.131Z,28.90
2019-04-03T06:46:20.262Z,23.40
2019-04-03T06:48:55.892Z,26.47
2019-04-03T06:51:31.134Z,29.97
2019-04-03T06:54:08.060Z,22.97
2019-04-03T06:56:43.184Z,23.57
2019-04-03T06:59:18.378Z,26.03
2019-04-03T07:01:53.699Z,25.23
2019-04-03T07:04:29.043Z,25.60
2019-04-03T07:07:04.765Z,25.37
2019-04-03T07:09:41.146Z,23.30
2019-04-03T07:12:16.439Z,27.37
2019-04-03T07:14:51.932Z,25.17
2019-04-03T07:17:27.220Z,30.30
2019-04-03T07:20:12.559Z,29.73
2019-04-03T07:22:39.949Z,27.67
2019-04-03T07:25:16.003Z,23.77
2019-04-03T07:27:51.101Z,24.57
2019-04-03T07:30:26.105Z,24.20
2019-04-03T07:33:01.334Z,24.07
2019-04-03T07:35:39.226Z,23.97
2019-04-03T07:38:13.427Z,25.80
2019-04-03T07:40:51.064Z,25.10
2019-04-03T07:43:26.921Z,25.63
2019-04-03T07:46:03.447Z,26.30
2019-04-03T07:48:39.270Z,23.23
2019-04-03T07:51:14.610Z,28.90
2019-04-03T07:53:51.203Z,21.83
2019-04-03T07:56:26.977Z,23.57
2019-04-03T07:59:03.895Z,24.50
2019-04-03T08:01:41.308Z,24.60
2019-04-03T08:04:16.824Z,30.80
2019-04-03T08:06:52.332Z,22.03
2019-04-03T08:09:27.465Z,25.20
2019-04-03T08:12:04.194Z,21.03
2019-04-03T08:14:41.125Z,24.03
2019-04-03T08:17:16.701Z,25.00
2019-04-03T08:19:54.363Z,24.00
2019-04-03T08:22:32.789Z,22.27
2019-04-03T08:25:11.000Z,28.60
2019-04-03T08:27:44.516Z,23.60
2019-04-03T08:30:22.307Z,24.13
2019-04-03T08:32:57.466Z,23.83
2019-04-03T08:35:35.107Z,22.60
2019-04-03T08:38:12.522Z,22.63
2019-04-03T08:40:46.195Z,24.10
2019-04-03T08:43:21.300Z,23.70
2019-04-03T08:45:56.581Z,22.70
2019-04-03T08:48:31.852Z,30.50
2019-04-03T08:51:07.427Z,27.57
2019-04-03T08:53:42.690Z,25.40
2019-04-03T08:56:17.985Z,28.60
2019-04-03T08:58:53.216Z,25.17
2019-04-03T09:01:28.296Z,26.73
2019-04-03T09:04:03.474Z,25.20
2019-04-03T09:06:38.507Z,23.20
2019-04-03T09:09:13.733Z,24.07
2019-04-03T09:11:49.056Z,27.50
2019-04-03T09:14:25.544Z,23.87
2019-04-03T09:17:02.696Z,24.33
2019-04-03T09:19:40.625Z,23.53
2019-04-03T09:22:14.384Z,22.50
2019-04-03T09:24:49.409Z,27.77
2019-04-03T09:27:24.447Z,25.27
2019-04-03T09:29:59.488Z,27.07
2019-04-03T09:32:36.988Z,28.50
2019-04-03T09:35:12.502Z,28.80
2019-04-03T09:37:47.835Z,24.83
2019-04-03T09:40:24.655Z,25.83
2019-04-03T09:43:00.761Z,23.63
2019-04-03T09:45:35.792Z,25.83
2019-04-03T09:48:12.303Z,31.13
2019-04-03T09:50:47.574Z,28.40
2019-04-03T09:53:23.965Z,27.70
2019-04-03T09:55:59.803Z,25.90
2019-04-03T09:58:36.266Z,24.03
2019-04-03T10:01:15.692Z,25.93
2019-04-03T10:03:48.661Z,26.00
2019-04-03T10:06:24.246Z,25.40
2019-04-03T10:08:59.876Z,25.47
2019-04-03T10:11:38.255Z,27.27
2019-04-03T10:14:12.863Z,23.10
2019-04-03T10:16:47.877Z,23.07
2019-04-03T10:19:23.023Z,24.30
2019-04-03T10:21:59.223Z,21.57
2019-04-03T10:24:34.856Z,24.10
2019-04-03T10:27:11.203Z,25.07
2019-04-03T10:29:49.148Z,26.07
2019-04-03T10:32:27.190Z,24.13
2019-04-03T10:35:00.654Z,28.00
2019-04-03T10:37:35.693Z,23.03
2019-04-03T10:40:24.972Z,23.87
2019-04-03T10:43:04.680Z,28.80
2019-04-03T10:45:38.441Z,25.47
2019-04-03T10:48:14.489Z,27.77
2019-04-03T10:50:49.530Z,21.97
2019-04-03T10:53:24.533Z,24.93
2019-04-03T10:56:00.574Z,23.80
2019-04-03T10:58:38.136Z,21.10
2019-04-03T11:01:15.907Z,22.20
2019-04-03T11:03:51.056Z,19.97
2019-04-03T11:06:27.050Z,20.90
2019-04-03T11:09:02.322Z,19.70
2019-04-03T11:11:39.015Z,18.30
2019-04-03T11:14:14.362Z,17.80
2019-04-03T11:16:49.373Z,16.63
2019-04-03T11:19:24.424Z,18.07
2019-04-03T11:21:59.689Z,19.93
2019-04-03T11:24:37.787Z,20.50
2019-04-03T11:27:12.379Z,19.03
2019-04-03T11:29:47.422Z,18.90
2019-04-03T11:32:23.400Z,21.03
2019-04-03T11:34:58.913Z,22.80
2019-04-03T11:37:34.317Z,19.17
2019-04-03T11:40:10.857Z,22.87
2019-04-03T11:42:46.033Z,20.37
2019-04-03T11:45:21.347Z,20.70
2019-04-03T11:47:56.799Z,23.17
2019-04-03T11:50:32.625Z,18.67
2019-04-03T11:53:07.827Z,22.57
2019-04-03T11:55:43.268Z,21.77
2019-04-03T11:58:20.179Z,20.03
2019-04-03T12:00:55.351Z,19.13
2019-04-03T12:03:30.439Z,17.33
2019-04-03T12:06:06.961Z,16.70
2019-04-03T12:08:44.572Z,13.50
2019-04-03T12:11:18.875Z,14.93
2019-04-03T12:13:54.008Z,14.10
2019-04-03T12:16:29.091Z,14.33
2019-04-03T12:19:05.768Z,13.03
2019-04-03T12:21:42.757Z,12.63
2019-04-03T12:24:18.305Z,13.37
2019-04-03T12:26:55.420Z,12.53
2019-04-03T12:29:30.979Z,11.70
2019-04-03T12:32:07.795Z,10.83
2019-04-03T12:34:42.989Z,16.13
2019-04-03T12:37:18.714Z,12.77
2019-04-03T12:39:54.444Z,11.93
2019-04-03T12:42:29.955Z,11.97
2019-04-03T12:45:09.725Z,17.90
2019-04-03T12:47:45.337Z,12.83
2019-04-03T12:50:20.567Z,13.73
2019-04-03T12:52:55.544Z,15.40
2019-04-03T12:55:30.526Z,16.30
2019-04-03T12:58:06.156Z,15.40
2019-04-03T13:00:41.319Z,15.83
2019-04-03T13:03:16.750Z,21.27
2019-04-03T13:05:51.870Z,16.20
2019-04-03T13:08:27.237Z,18.63
2019-04-03T13:11:02.684Z,20.27
2019-04-03T13:13:38.639Z,18.83
2019-04-03T13:16:15.018Z,19.50
2019-04-03T13:18:50.021Z,22.60
2019-04-03T13:21:25.085Z,23.87
2019-04-03T13:24:00.119Z,25.90
2019-04-03T13:26:35.213Z,21.80
2019-04-03T13:29:10.677Z,27.60
2019-04-03T13:31:47.057Z,26.90
2019-04-03T13:34:22.548Z,25.70
2019-04-03T13:36:59.082Z,25.27
2019-04-03T13:39:34.831Z,23.37
2019-04-03T13:42:12.709Z,22.83
2019-04-03T13:44:46.637Z,25.73
2019-04-03T13:47:21.768Z,26.07
2019-04-03T13:49:56.790Z,26.50
2019-04-03T13:52:40.261Z,23.40
2019-04-03T13:55:09.830Z,24.37
2019-04-03T13:57:44.991Z,24.70
2019-04-03T14:00:23.508Z,24.53
2019-04-03T14:02:58.546Z,23.83
2019-04-03T14:05:34.133Z,25.47
2019-04-03T14:08:12.208Z,24.80
2019-04-03T14:10:46.269Z,29.40
2019-04-03T14:13:21.699Z,29.00
2019-04-03T14:15:56.921Z,30.40
2019-04-03T14:18:32.170Z,26.60
2019-04-03T14:21:08.265Z,24.97
2019-04-03T14:23:44.228Z,25.53
2019-04-03T14:26:19.264Z,29.20
2019-04-03T14:28:54.627Z,25.53
2019-04-03T14:31:35.585Z,30.70
2019-04-03T14:34:06.585Z,32.47
2019-04-03T14:36:41.819Z,30.30
2019-04-03T14:39:17.165Z,25.90
2019-04-03T14:41:54.262Z,25.73
2019-04-03T14:44:29.246Z,28.83
2019-04-03T14:47:04.533Z,32.37
2019-04-03T14:49:39.522Z,28.83
2019-04-03T14:52:15.026Z,31.90
2019-04-03T14:54:51.647Z,29.00
2019-04-03T14:57:26.898Z,31.93
2019-04-03T15:00:05.084Z,33.70
2019-04-03T15:02:41.008Z,26.93
2019-04-03T15:05:18.664Z,29.20
2019-04-03T15:07:53.959Z,27.87
2019-04-03T15:10:30.690Z,36.30
2019-04-03T15:13:06.032Z,34.03
2019-04-03T15:15:42.777Z,28.37
2019-04-03T15:18:17.795Z,29.40
2019-04-03T15:20:53.283Z,26.23
2019-04-03T15:23:28.306Z,31.60
2019-04-03T15:26:03.522Z,32.83
2019-04-03T15:28:38.552Z,34.63
2019-04-03T15:31:14.937Z,34.00
2019-04-03T15:33:50.018Z,34.03
2019-04-03T15:36:25.474Z,31.17
2019-04-03T15:39:01.508Z,32.40
2019-04-03T15:41:38.246Z,29.97
2019-04-03T15:44:13.490Z,37.50
2019-04-03T15:46:49.667Z,30.50
2019-04-03T15:49:26.738Z,33.90
2019-04-03T15:52:01.725Z,32.20
2019-04-03T15:54:38.710Z,32.27
2019-04-03T15:57:14.365Z,38.10
2019-04-03T15:59:52.056Z,30.97
2019-04-03T16:02:28.459Z,36.87
2019-04-03T16:05:03.162Z,34.10
2019-04-03T16:07:41.439Z,33.93
2019-04-03T16:10:15.293Z,37.97
2019-04-03T16:12:50.362Z,35.53
2019-04-03T16:15:25.538Z,32.40
2019-04-03T16:18:00.543Z,35.97
2019-04-03T16:20:36.414Z,37.90
2019-04-03T16:23:11.633Z,41.67
2019-04-03T16:25:48.575Z,34.17
2019-04-03T16:28:23.639Z,28.43
2019-04-03T16:30:59.148Z,33.37
2019-04-03T16:33:35.802Z,33.90
2019-04-03T16:36:11.417Z,35.80
2019-04-03T16:38:46.920Z,37.50
2019-04-03T16:41:22.220Z,33.23
2019-04-03T16:43:57.258Z,35.47
2019-04-03T16:46:32.634Z,38.43
2019-04-03T16:49:07.938Z,34.07
2019-04-03T16:51:43.683Z,33.40
2019-04-03T16:54:18.944Z,36.63
2019-04-03T16:56:54.286Z,32.37
2019-04-03T16:59:29.355Z,32.13
2019-04-03T17:02:04.512Z,33.23
2019-04-03T17:04:39.892Z,33.13
2019-04-03T17:07:14.902Z,35.30
2019-04-03T17:09:50.108Z,35.70
2019-04-03T17:12:25.370Z,36.47
2019-04-03T17:15:00.535Z,34.70
2019-04-03T17:17:35.576Z,30.57
2019-04-03T17:20:11.588Z,34.40
2019-04-03T17:22:46.991Z,41.57
2019-04-03T17:25:26.887Z,34.03
2019-04-03T17:28:05.803Z,34.40
2019-04-03T17:30:37.300Z,35.07
2019-04-03T17:33:12.572Z,38.50
2019-04-03T17:35:49.618Z,34.70
2019-04-03T17:38:24.656Z,38.27
2019-04-03T17:40:59.696Z,43.93
2019-04-03T17:43:35.182Z,38.23
2019-04-03T17:46:10.218Z,43.00
2019-04-03T17:48:45.243Z,40.30
2019-04-03T17:51:20.992Z,38.10
2019-04-03T17:53:56.074Z,40.90
2019-04-03T17:56:31.071Z,38.47
2019-04-03T17:59:06.495Z,36.87
2019-04-03T18:01:41.772Z,38.60
2019-04-03T18:04:16.765Z,38.87
2019-04-03T18:06:52.589Z,37.70
2019-04-03T18:09:27.624Z,42.03
2019-04-03T18:12:02.845Z,37.13
2019-04-03T18:14:37.861Z,40.73
2019-04-03T18:17:12.950Z,37.17
2019-04-03T18:19:47.979Z,39.43
2019-04-03T18:22:23.159Z,38.90
2019-04-03T18:24:58.166Z,43.50
2019-04-03T18:27:34.101Z,38.67
2019-04-03T18:30:12.466Z,41.43
2019-04-03T18:32:47.822Z,44.70
2019-04-03T18:35:25.546Z,45.43
2019-04-03T18:37:59.863Z,37.10
2019-04-03T18:40:35.122Z,41.83
2019-04-03T18:43:10.112Z,38.17
2019-04-03T18:45:45.088Z,41.27
2019-04-03T18:48:20.100Z,43.13
2019-04-03T18:50:55.074Z,42.30
2019-04-03T18:53:30.071Z,46.97
2019-04-03T18:56:05.538Z,38.40
2019-04-03T18:58:43.963Z,41.60
2019-04-03T19:01:18.623Z,38.47
2019-04-03T19:03:54.744Z,45.57
2019-04-03T19:06:29.736Z,39.40
2019-04-03T19:09:10.049Z,36.87
2019-04-03T19:11:43.530Z,38.80
2019-04-03T19:14:27.035Z,55.03
2019-04-03T19:16:57.390Z,49.60
2019-04-03T19:19:32.762Z,46.80
2019-04-03T19:22:08.533Z,45.73
2019-04-03T19:24:43.761Z,45.40
2019-04-03T19:27:18.856Z,53.77
2019-04-03T19:29:54.062Z,46.27
2019-04-03T19:32:29.121Z,51.67
2019-04-03T19:35:04.281Z,53.47
2019-04-03T19:37:39.358Z,55.13
2019-04-03T19:40:14.853Z,47.67
2019-04-03T19:42:49.938Z,48.80
2019-04-03T19:45:25.010Z,50.37
2019-04-03T19:48:00.891Z,45.13
2019-04-03T19:50:36.008Z,46.70
2019-04-03T19:53:12.829Z,52.20
2019-04-03T19:55:47.852Z,50.90
2019-04-03T19:58:23.172Z,59.20
2019-04-03T20:00:58.255Z,49.43
2019-04-03T20:03:34.562Z,51.60
2019-04-03T20:06:09.571Z,56.37
2019-04-03T20:08:44.656Z,48.40
2019-04-03T20:11:19.948Z,47.67
2019-04-03T20:13:55.013Z,51.50
2019-04-03T20:16:30.618Z,46.80
2019-04-03T20:19:05.763Z,46.17
2019-04-03T20:21:40.768Z,49.00
2019-04-03T20:24:15.753Z,48.60
2019-04-03T20:26:50.805Z,49.63
2019-04-03T20:29:31.586Z,49.43
2019-04-03T20:32:07.145Z,51.63
2019-04-03T20:34:44.423Z,43.30
2019-04-03T20:37:19.806Z,44.77
2019-04-03T20:39:54.777Z,54.23
2019-04-03T20:42:29.787Z,51.10
2019-04-03T20:45:05.317Z,53.30
2019-04-03T20:47:40.367Z,52.67
2019-04-03T20:50:16.282Z,49.00
2019-04-03T20:52:52.132Z,55.03
2019-04-03T20:55:29.148Z,59.40
2019-04-03T20:58:06.620Z,52.73
2019-04-03T21:00:41.470Z,50.80
2019-04-03T21:03:16.458Z,53.20
2019-04-03T21:05:51.608Z,60.43
2019-04-03T21:08:27.190Z,60.17
2019-04-03T21:11:03.032Z,62.50
2019-04-03T21:13:40.200Z,55.40
2019-04-03T21:16:16.959Z,64.20
2019-04-03T21:18:53.594Z,56.77
2019-04-03T21:21:28.697Z,62.00
2019-04-03T21:24:04.575Z,65.17
2019-04-03T21:26:43.453Z,60.40
2019-04-03T21:29:20.123Z,69.57
2019-04-03T21:31:56.709Z,56.87
2019-04-03T21:34:32.813Z,78.17
2019-04-03T21:37:09.569Z,64.10
2019-04-03T21:39:45.058Z,70.47
2019-04-03T21:42:20.119Z,55.63
2019-04-03T21:44:55.085Z,60.03
2019-04-03T21:47:30.170Z,57.40
2019-04-03T21:50:06.093Z,69.77
2019-04-03T21:52:42.247Z,49.20
2019-04-03T21:55:17.944Z,64.40
2019-04-03T21:57:53.134Z,54.70
2019-04-03T22:01:20.979Z,50.23
2019-04-03T22:03:56.138Z,56.90
2019-04-03T22:06:31.411Z,65.47
2019-04-03T22:09:12.291Z,58.10
2019-04-03T22:11:47.556Z,62.70
2019-04-03T22:14:22.782Z,51.77
2019-04-03T22:16:57.878Z,60.87
2019-04-03T22:19:33.680Z,54.40
2019-04-03T22:22:08.796Z,57.00
2019-04-03T22:24:43.948Z,46.43
2019-04-03T22:27:19.019Z,44.50
2019-04-03T22:29:54.247Z,59.90
2019-04-03T22:32:29.303Z,54.30
2019-04-03T22:35:04.678Z,52.17
2019-04-03T22:37:40.065Z,46.47
2019-04-03T22:40:15.246Z,52.47
2019-04-03T22:42:51.565Z,50.70
2019-04-03T22:45:26.671Z,53.13
2019-04-03T22:48:01.952Z,45.20
2019-04-03T22:50:37.990Z,48.57
2019-04-03T22:53:13.263Z,42.23
2019-04-03T22:55:48.289Z,50.87
2019-04-03T22:58:23.552Z,50.70
2019-04-03T23:00:59.295Z,74.07
2019-04-03T23:03:35.057Z,52.10
2019-04-03T23:06:10.164Z,107.83
2019-04-03T23:08:45.350Z,83.17
2019-04-03T23:11:20.441Z,52.20
2019-04-03T23:13:55.652Z,65.07
2019-04-03T23:16:30.794Z,45.33
2019-04-03T23:19:05.965Z,49.27
2019-04-03T23:21:41.111Z,55.07
2019-04-03T23:24:16.247Z,53.40
2019-04-03T23:26:51.439Z,42.57
2019-04-03T23:29:26.571Z,46.43
2019-04-03T23:32:01.965Z,50.13
2019-04-03T23:34:37.494Z,38.80
2019-04-03T23:37:12.726Z,60.60
2019-04-03T23:39:47.900Z,48.57
2019-04-03T23:42:23.221Z,43.80
2019-04-03T23:44:58.403Z,49.43
2019-04-03T23:47:34.040Z,41.80
2019-04-03T23:50:09.221Z,44.83
2019-04-03T23:52:44.533Z,47.30
2019-04-03T23:55:19.639Z,43.43
2019-04-03T23:57:55.066Z,37.10
